UGKO/KIU METAR and TAF weather

Enter ICAO airport designator
Station Type Date Time Source
UGKO METAR 2019/10/15 18:30 UTC NOAA

UGKO 151830Z 08005KT CAVOK 14/13 Q1019 NOSIG


Station Type Date Time Source
UGKO Decoded METAR 2019/10/15 18:30 UTC NOAA

Station name not available
Oct 15, 2019 - 02:30 PM EDT / 2019.10.15 1830 UTC
Wind: from the E (080 degrees) at 6 MPH (5 KT):0
Visibility: greater than 7 mile(s):0
Temperature: 57 F (14 C)
Dew Point: 55 F (13 C)
Relative Humidity: 93%
Pressure (altimeter): 30.09 in. Hg (1019 hPa)
ob: UGKO 151830Z 08005KT CAVOK 14/13 Q1019 NOSIG
cycle: 18

Station Type Date Time Source
UGKO TAF 2019/10/15 18:07 UTC NOAA

TAF UGKO 151700Z 1518/1618 VRB02KT CAVOK TX27/1611Z TN12/1602Z PROB40
TEMPO 1600/1605 2000 BCFG BR

Example: see airport list